Hlavní strana
METAR-TAF:

METAR-TAF

Letiště :

Mezinárodní letiště Čennaí

Čennaj, Indie

zeměpisná šířka: 13-00N, zeměpisná délka: 080-11E, výška: 10 m

Aktuální stav počasí

Zpráva byla vytvořena před 25 minutami, v 05:00 UTC
Jihozápadní vítr 10 kt
Teplota 35°C
Vlhkost vzduchu 44%
Tlak 1006 hPa
Viditelnost: 8000 m
Skoro jasno ve výšce 2000 ft

METAR: VOMM 200500Z 23010KT 8000 FEW020 35/21 Q1006 NOSIG

Čas: 10:55 (05:25 UTC)

Předpověď počasí

Zpráva byla vytvořena před 6 hodinami a 25 minutami, v 23:00 UTC
Předpověď platná od 20 v 00 UTC do 21 v 06 UTC
Jihozápadní vítr 10 kt
Viditelnost: 6000 m
Skoro jasno ve výšce 2000 ft
Změna
od 20 v 06 UTC do 20 v 07 UTC
Západojihozápadní vítr 10 kt s nárazy do 20 kt
Změna
od 20 v 12 UTC do 20 v 13 UTC
Jihojihozápadní vítr 10 kt

TAF: VOMM 192300Z 2000/2106 22010KT 6000 FEW020 BECMG 2006/2007 24010G20KT BECMG 2012/2013 20010KT

Stav a předpovědi počasí z více než 4 000 letišť (zprávy METAR a TAF).

Červené a žluté tečky na mapě představují dostupné meteorologické stanice.

Když kurzor umístíte na tečku, zobrazí se název stanice.

Pak kliknutím zobrazíte stav a předpověď počasí.

Chcete-li změnit mapu, kliknutím na zelené tlačítko se znaménkem +mapu přiblížíte, kliknutím na zelené tlačítko se znaménkem – mapu oddálíte a kliknutím na zelené šipky přejdete na sousední mapy.


METAR-TAF: